Dyess Air Force Base
KDYS : now visible

Airfield :











YOU CAN JOIN US ON...

 
LOGIN :

Register | Disclaimer

   EN    FR    IT 

 









Legend :    VFR   Marginal VFR   IFR   Intensive IFR   Very Intensive IFR
Visi :
Ceiling :
>= 8 km
>= 3000ft
5 to 8 km
1000 to 3000 ft
1500m to 5 km
500 to 1000 ft
800 to 1500m
200 to 500 ft
< 800m
< 200 ft
Symbols :   Thunderstorms  Fog  Heavy snow  Heavy precipitations  Wind > 20 kt






- Airport Elevation : 1789 ft


KDYS - Dyess Air Force Base

CURRENT METAR :
  • 161156Z AUTO 33011KT 10SM OVC012 02/M03 A3000 RMK AO2 SLP163 T00161031 10021 20014 53019 PNO FZRANO $

EXPIRED METARs :
  • 161056Z AUTO 33011KT 10SM OVC013 02/M03 A2997 RMK AO2 SLP151 T00161031 PNO FZRANO $
  • 160956Z AUTO 34011KT 10SM OVC013 01/M03 A2995 RMK AO2 SLP144 T00141031 PNO FZRANO $

TAF AMD TAF KDYS
Valid from the 16 at 09:00 until the 17 at 13:00 UTC


160905Z 1609/1713 34012KT 9999 BKN012 OVC025 QNH2994INS
TEMPO 1609/1615 35012KT OVC007
BECMG 1617/1618 33012G18KT 9999 BKN025 QNH3010INS
BECMG 1623/1624 34009KT 9999 SCT050 QNH3018INS
BECMG 1704/1705 34009KT 9999 SKC QNH3026INS TX05/1622Z TNM03/1707Z



MET'MAP, your aeronautical weather chart ! - Copyright ORBIFLY December 2007 - Disclaimer

ORBIFLY MET'MAP TEAM :

Programming & Development : Alexandra Zaïnal
Concept & original design : Baudouin d'Aumeries
Assistance for programming : Marc-Olivier Méhu
Technical & hardware support : Manuel Goepfert

Contact : metmap@orbifly.com




SOURCES & CREDITS :

   NOAA       Earth
Advisory